sensor_id;sensor_type;location;lat;lon;timestamp;temperature;humidity
47791;DHT22;33547;49.044;1.156;2023-07-20T00:00:45;14.90;99.90
47791;DHT22;33547;49.044;1.156;2023-07-20T00:03:14;14.80;99.90
47791;DHT22;33547;49.044;1.156;2023-07-20T00:05:45;14.70;99.90
47791;DHT22;33547;49.044;1.156;2023-07-20T00:08:11;14.80;99.90
47791;DHT22;33547;49.044;1.156;2023-07-20T00:10:36;14.70;99.90
47791;DHT22;33547;49.044;1.156;2023-07-20T00:13:02;14.70;99.90
47791;DHT22;33547;49.044;1.156;2023-07-20T00:15:28;14.60;99.90
47791;DHT22;33547;49.044;1.156;2023-07-20T00:17:53;14.60;99.90
47791;DHT22;33547;49.044;1.156;2023-07-20T00:20:19;14.50;99.90
47791;DHT22;33547;49.044;1.156;2023-07-20T00:22:44;14.50;99.90
47791;DHT22;33547;49.044;1.156;2023-07-20T00:25:10;14.50;99.90
47791;DHT22;33547;49.044;1.156;2023-07-20T00:27:38;14.50;99.90
47791;DHT22;33547;49.044;1.156;2023-07-20T00:30:04;14.50;99.90
47791;DHT22;33547;49.044;1.156;2023-07-20T00:32:30;14.40;99.90
47791;DHT22;33547;49.044;1.156;2023-07-20T00:34:56;14.40;99.90
47791;DHT22;33547;49.044;1.156;2023-07-20T00:37:21;14.40;99.90
47791;DHT22;33547;49.044;1.156;2023-07-20T00:39:47;14.30;99.90
47791;DHT22;33547;49.044;1.156;2023-07-20T00:42:13;14.30;99.90
47791;DHT22;33547;49.044;1.156;2023-07-20T00:44:38;14.30;99.90
47791;DHT22;33547;49.044;1.156;2023-07-20T00:47:05;14.20;99.90
47791;DHT22;33547;49.044;1.156;2023-07-20T00:49:31;14.10;99.90
47791;DHT22;33547;49.044;1.156;2023-07-20T00:51:58;14.20;99.90
47791;DHT22;33547;49.044;1.156;2023-07-20T00:54:25;14.10;99.90
47791;DHT22;33547;49.044;1.156;2023-07-20T00:56:52;14.00;99.90
47791;DHT22;33547;49.044;1.156;2023-07-20T00:59:18;14.00;99.90
47791;DHT22;33547;49.044;1.156;2023-07-20T01:01:44;13.90;99.90
47791;DHT22;33547;49.044;1.156;2023-07-20T01:04:10;14.00;99.90
47791;DHT22;33547;49.044;1.156;2023-07-20T01:09:19;14.00;99.90
47791;DHT22;33547;49.044;1.156;2023-07-20T01:12:00;14.00;99.90
47791;DHT22;33547;49.044;1.156;2023-07-20T01:14:29;14.20;99.90
47791;DHT22;33547;49.044;1.156;2023-07-20T01:16:57;14.20;99.90
47791;DHT22;33547;49.044;1.156;2023-07-20T01:19:22;14.20;99.90
47791;DHT22;33547;49.044;1.156;2023-07-20T01:21:56;14.10;99.90
47791;DHT22;33547;49.044;1.156;2023-07-20T01:25:04;14.00;99.90
47791;DHT22;33547;49.044;1.156;2023-07-20T01:30:45;13.90;99.90
47791;DHT22;33547;49.044;1.156;2023-07-20T01:33:13;13.80;99.90
47791;DHT22;33547;49.044;1.156;2023-07-20T01:35:41;13.80;99.90
47791;DHT22;33547;49.044;1.156;2023-07-20T01:38:10;13.80;99.90
47791;DHT22;33547;49.044;1.156;2023-07-20T01:40:37;13.70;99.90
47791;DHT22;33547;49.044;1.156;2023-07-20T01:43:03;13.50;99.90
47791;DHT22;33547;49.044;1.156;2023-07-20T01:45:29;13.60;99.90
47791;DHT22;33547;49.044;1.156;2023-07-20T01:47:54;13.60;99.90
47791;DHT22;33547;49.044;1.156;2023-07-20T01:50:20;13.50;99.90
47791;DHT22;33547;49.044;1.156;2023-07-20T01:52:46;13.50;99.90
47791;DHT22;33547;49.044;1.156;2023-07-20T01:55:11;13.50;99.90
47791;DHT22;33547;49.044;1.156;2023-07-20T01:57:37;13.50;99.90
47791;DHT22;33547;49.044;1.156;2023-07-20T02:00:03;13.40;99.90
47791;DHT22;33547;49.044;1.156;2023-07-20T02:02:29;13.40;99.90
47791;DHT22;33547;49.044;1.156;2023-07-20T02:04:55;13.60;99.90
47791;DHT22;33547;49.044;1.156;2023-07-20T02:07:20;13.60;99.90
47791;DHT22;33547;49.044;1.156;2023-07-20T02:09:46;13.60;99.90
47791;DHT22;33547;49.044;1.156;2023-07-20T02:12:12;13.60;99.90
47791;DHT22;33547;49.044;1.156;2023-07-20T02:14:37;13.40;99.90
47791;DHT22;33547;49.044;1.156;2023-07-20T02:17:03;13.40;99.90
47791;DHT22;33547;49.044;1.156;2023-07-20T02:19:30;13.30;99.90
47791;DHT22;33547;49.044;1.156;2023-07-20T02:21:55;13.20;99.90
47791;DHT22;33547;49.044;1.156;2023-07-20T02:24:21;13.20;99.90
47791;DHT22;33547;49.044;1.156;2023-07-20T02:26:47;13.20;99.90
47791;DHT22;33547;49.044;1.156;2023-07-20T02:29:12;13.30;99.90
47791;DHT22;33547;49.044;1.156;2023-07-20T02:31:38;13.20;99.90
47791;DHT22;33547;49.044;1.156;2023-07-20T02:34:05;13.30;99.90
47791;DHT22;33547;49.044;1.156;2023-07-20T02:36:31;13.20;99.90
47791;DHT22;33547;49.044;1.156;2023-07-20T02:38:58;13.30;99.90
47791;DHT22;33547;49.044;1.156;2023-07-20T02:41:24;13.20;99.90
47791;DHT22;33547;49.044;1.156;2023-07-20T02:43:50;13.30;99.90
47791;DHT22;33547;49.044;1.156;2023-07-20T02:46:15;13.30;99.90
47791;DHT22;33547;49.044;1.156;2023-07-20T02:48:41;13.30;99.90
47791;DHT22;33547;49.044;1.156;2023-07-20T02:51:06;13.30;99.90
47791;DHT22;33547;49.044;1.156;2023-07-20T02:53:33;13.30;99.90
47791;DHT22;33547;49.044;1.156;2023-07-20T02:55:59;13.30;99.90
47791;DHT22;33547;49.044;1.156;2023-07-20T02:58:24;13.20;99.90
47791;DHT22;33547;49.044;1.156;2023-07-20T03:00:50;13.30;99.90
47791;DHT22;33547;49.044;1.156;2023-07-20T03:03:16;13.30;99.90
47791;DHT22;33547;49.044;1.156;2023-07-20T03:05:42;13.30;99.90
47791;DHT22;33547;49.044;1.156;2023-07-20T03:08:08;13.40;99.90
47791;DHT22;33547;49.044;1.156;2023-07-20T03:10:41;13.40;99.90
47791;DHT22;33547;49.044;1.156;2023-07-20T03:13:07;13.10;99.90
47791;DHT22;33547;49.044;1.156;2023-07-20T03:15:33;13.20;99.90
47791;DHT22;33547;49.044;1.156;2023-07-20T03:17:59;13.10;99.90
47791;DHT22;33547;49.044;1.156;2023-07-20T03:20:25;13.00;99.90
47791;DHT22;33547;49.044;1.156;2023-07-20T03:22:51;13.00;99.90
47791;DHT22;33547;49.044;1.156;2023-07-20T03:25:16;12.90;99.90
47791;DHT22;33547;49.044;1.156;2023-07-20T03:27:43;12.90;99.90
47791;DHT22;33547;49.044;1.156;2023-07-20T03:30:08;12.90;99.90
47791;DHT22;33547;49.044;1.156;2023-07-20T03:32:35;12.90;99.90
47791;DHT22;33547;49.044;1.156;2023-07-20T03:35:01;12.80;99.90
47791;DHT22;33547;49.044;1.156;2023-07-20T03:37:26;12.90;99.90
47791;DHT22;33547;49.044;1.156;2023-07-20T03:39:52;12.80;99.90
47791;DHT22;33547;49.044;1.156;2023-07-20T03:42:18;12.80;99.90
47791;DHT22;33547;49.044;1.156;2023-07-20T03:44:43;12.70;99.90
47791;DHT22;33547;49.044;1.156;2023-07-20T03:47:09;12.80;99.90
47791;DHT22;33547;49.044;1.156;2023-07-20T03:49:35;12.70;99.90
47791;DHT22;33547;49.044;1.156;2023-07-20T03:52:01;12.60;99.90
47791;DHT22;33547;49.044;1.156;2023-07-20T03:54:28;12.70;99.90
47791;DHT22;33547;49.044;1.156;2023-07-20T03:56:54;12.70;99.90
47791;DHT22;33547;49.044;1.156;2023-07-20T03:59:20;12.80;99.90
47791;DHT22;33547;49.044;1.156;2023-07-20T04:01:45;12.80;99.90
47791;DHT22;33547;49.044;1.156;2023-07-20T04:04:11;12.80;99.90
47791;DHT22;33547;49.044;1.156;2023-07-20T04:06:37;12.80;99.90
47791;DHT22;33547;49.044;1.156;2023-07-20T04:09:03;12.80;99.90
47791;DHT22;33547;49.044;1.156;2023-07-20T04:11:32;12.70;99.90
47791;DHT22;33547;49.044;1.156;2023-07-20T04:13:58;12.70;99.90
47791;DHT22;33547;49.044;1.156;2023-07-20T04:16:23;12.90;99.90
47791;DHT22;33547;49.044;1.156;2023-07-20T04:18:49;13.00;99.90
47791;DHT22;33547;49.044;1.156;2023-07-20T04:21:15;13.10;99.90
47791;DHT22;33547;49.044;1.156;2023-07-20T04:23:41;13.40;99.90
47791;DHT22;33547;49.044;1.156;2023-07-20T04:26:07;13.60;99.90
47791;DHT22;33547;49.044;1.156;2023-07-20T04:28:33;13.70;99.90
47791;DHT22;33547;49.044;1.156;2023-07-20T04:31:12;14.00;99.90
47791;DHT22;33547;49.044;1.156;2023-07-20T04:33:38;14.00;99.90
47791;DHT22;33547;49.044;1.156;2023-07-20T04:36:04;14.00;99.90
47791;DHT22;33547;49.044;1.156;2023-07-20T04:38:30;14.20;99.90
47791;DHT22;33547;49.044;1.156;2023-07-20T04:40:55;14.30;99.90
47791;DHT22;33547;49.044;1.156;2023-07-20T04:43:21;14.40;99.90
47791;DHT22;33547;49.044;1.156;2023-07-20T04:45:47;14.40;99.90
47791;DHT22;33547;49.044;1.156;2023-07-20T04:48:15;14.40;99.90
47791;DHT22;33547;49.044;1.156;2023-07-20T04:50:42;14.20;99.90
47791;DHT22;33547;49.044;1.156;2023-07-20T04:53:11;14.30;99.90
47791;DHT22;33547;49.044;1.156;2023-07-20T04:55:40;14.40;99.90
47791;DHT22;33547;49.044;1.156;2023-07-20T04:58:12;14.40;99.90
47791;DHT22;33547;49.044;1.156;2023-07-20T05:00:38;14.40;99.90
47791;DHT22;33547;49.044;1.156;2023-07-20T05:03:03;14.30;99.90
47791;DHT22;33547;49.044;1.156;2023-07-20T05:05:31;14.50;99.90
47791;DHT22;33547;49.044;1.156;2023-07-20T05:07:57;14.50;99.90
47791;DHT22;33547;49.044;1.156;2023-07-20T05:10:23;14.40;99.90
47791;DHT22;33547;49.044;1.156;2023-07-20T05:12:49;14.50;99.90
47791;DHT22;33547;49.044;1.156;2023-07-20T05:15:14;14.60;99.90
47791;DHT22;33547;49.044;1.156;2023-07-20T05:17:41;14.50;99.90
47791;DHT22;33547;49.044;1.156;2023-07-20T05:20:07;14.60;99.90
47791;DHT22;33547;49.044;1.156;2023-07-20T05:22:38;14.60;99.90
47791;DHT22;33547;49.044;1.156;2023-07-20T05:25:07;14.70;99.90
47791;DHT22;33547;49.044;1.156;2023-07-20T05:27:36;14.80;99.90
47791;DHT22;33547;49.044;1.156;2023-07-20T05:30:01;14.80;99.90
47791;DHT22;33547;49.044;1.156;2023-07-20T05:32:28;14.90;99.90
47791;DHT22;33547;49.044;1.156;2023-07-20T05:34:54;14.90;99.90
47791;DHT22;33547;49.044;1.156;2023-07-20T05:37:20;15.00;99.90
47791;DHT22;33547;49.044;1.156;2023-07-20T05:39:46;15.10;99.90
47791;DHT22;33547;49.044;1.156;2023-07-20T05:42:12;15.10;99.90
47791;DHT22;33547;49.044;1.156;2023-07-20T05:44:37;15.20;99.90
47791;DHT22;33547;49.044;1.156;2023-07-20T05:47:03;15.30;99.90
47791;DHT22;33547;49.044;1.156;2023-07-20T05:49:29;15.20;99.90
47791;DHT22;33547;49.044;1.156;2023-07-20T05:51:55;15.40;99.90
47791;DHT22;33547;49.044;1.156;2023-07-20T05:54:21;15.40;99.90
47791;DHT22;33547;49.044;1.156;2023-07-20T05:56:47;15.50;99.90
47791;DHT22;33547;49.044;1.156;2023-07-20T05:59:13;15.40;99.90
47791;DHT22;33547;49.044;1.156;2023-07-20T06:01:38;15.40;99.90
47791;DHT22;33547;49.044;1.156;2023-07-20T06:04:04;15.50;99.90
47791;DHT22;33547;49.044;1.156;2023-07-20T06:06:30;15.40;99.90
47791;DHT22;33547;49.044;1.156;2023-07-20T06:08:55;15.50;99.90
47791;DHT22;33547;49.044;1.156;2023-07-20T06:11:21;15.50;99.90
47791;DHT22;33547;49.044;1.156;2023-07-20T06:13:47;15.50;99.90
47791;DHT22;33547;49.044;1.156;2023-07-20T06:16:12;15.40;99.90
47791;DHT22;33547;49.044;1.156;2023-07-20T06:18:38;15.30;99.90
47791;DHT22;33547;49.044;1.156;2023-07-20T06:21:04;15.30;99.90
47791;DHT22;33547;49.044;1.156;2023-07-20T06:23:30;15.50;99.90
47791;DHT22;33547;49.044;1.156;2023-07-20T06:25:55;15.60;99.90
47791;DHT22;33547;49.044;1.156;2023-07-20T06:28:21;15.50;99.90
47791;DHT22;33547;49.044;1.156;2023-07-20T06:30:47;15.80;99.90
47791;DHT22;33547;49.044;1.156;2023-07-20T06:33:12;15.90;99.90
47791;DHT22;33547;49.044;1.156;2023-07-20T06:35:41;15.90;99.90
47791;DHT22;33547;49.044;1.156;2023-07-20T06:38:08;15.90;99.90
47791;DHT22;33547;49.044;1.156;2023-07-20T06:40:33;16.10;99.90
47791;DHT22;33547;49.044;1.156;2023-07-20T06:42:59;16.20;99.90
47791;DHT22;33547;49.044;1.156;2023-07-20T06:45:25;16.20;99.90
47791;DHT22;33547;49.044;1.156;2023-07-20T06:47:51;16.30;99.90
47791;DHT22;33547;49.044;1.156;2023-07-20T06:50:16;16.40;99.90
47791;DHT22;33547;49.044;1.156;2023-07-20T06:52:42;16.40;99.90
47791;DHT22;33547;49.044;1.156;2023-07-20T06:55:08;16.40;99.90
47791;DHT22;33547;49.044;1.156;2023-07-20T06:57:34;16.50;99.90
47791;DHT22;33547;49.044;1.156;2023-07-20T06:59:59;16.30;99.90
47791;DHT22;33547;49.044;1.156;2023-07-20T07:02:25;16.60;99.90
47791;DHT22;33547;49.044;1.156;2023-07-20T07:04:50;16.70;99.90
47791;DHT22;33547;49.044;1.156;2023-07-20T07:07:16;16.60;99.90
47791;DHT22;33547;49.044;1.156;2023-07-20T07:09:42;16.70;99.90
47791;DHT22;33547;49.044;1.156;2023-07-20T07:12:08;16.70;99.90
47791;DHT22;33547;49.044;1.156;2023-07-20T07:14:34;16.80;99.90
47791;DHT22;33547;49.044;1.156;2023-07-20T07:17:00;16.90;99.90
47791;DHT22;33547;49.044;1.156;2023-07-20T07:19:26;16.80;99.90
47791;DHT22;33547;49.044;1.156;2023-07-20T07:21:51;16.90;99.90
47791;DHT22;33547;49.044;1.156;2023-07-20T07:24:17;17.00;99.90
47791;DHT22;33547;49.044;1.156;2023-07-20T07:26:43;16.90;99.90
47791;DHT22;33547;49.044;1.156;2023-07-20T07:29:09;16.90;99.90
47791;DHT22;33547;49.044;1.156;2023-07-20T07:31:35;17.00;99.90
47791;DHT22;33547;49.044;1.156;2023-07-20T07:34:04;16.60;99.90
47791;DHT22;33547;49.044;1.156;2023-07-20T07:36:31;17.00;99.90
47791;DHT22;33547;49.044;1.156;2023-07-20T07:38:56;17.10;99.90
47791;DHT22;33547;49.044;1.156;2023-07-20T07:41:22;17.00;99.90
47791;DHT22;33547;49.044;1.156;2023-07-20T07:43:48;17.10;99.90
47791;DHT22;33547;49.044;1.156;2023-07-20T07:46:14;17.40;99.90
47791;DHT22;33547;49.044;1.156;2023-07-20T07:48:40;17.40;99.90
47791;DHT22;33547;49.044;1.156;2023-07-20T07:51:06;17.60;99.90
47791;DHT22;33547;49.044;1.156;2023-07-20T07:53:31;17.70;99.90
47791;DHT22;33547;49.044;1.156;2023-07-20T07:55:58;17.50;99.90
47791;DHT22;33547;49.044;1.156;2023-07-20T07:58:24;17.60;99.90
47791;DHT22;33547;49.044;1.156;2023-07-20T08:00:49;17.80;99.90
47791;DHT22;33547;49.044;1.156;2023-07-20T08:03:15;17.90;99.90
47791;DHT22;33547;49.044;1.156;2023-07-20T08:05:41;18.00;99.90
47791;DHT22;33547;49.044;1.156;2023-07-20T08:08:06;18.30;99.90
47791;DHT22;33547;49.044;1.156;2023-07-20T08:10:34;18.00;99.90
47791;DHT22;33547;49.044;1.156;2023-07-20T08:12:59;18.10;99.90
47791;DHT22;33547;49.044;1.156;2023-07-20T08:15:25;18.20;99.90
47791;DHT22;33547;49.044;1.156;2023-07-20T08:17:51;18.50;99.90
47791;DHT22;33547;49.044;1.156;2023-07-20T08:20:18;18.60;99.90
47791;DHT22;33547;49.044;1.156;2023-07-20T08:22:44;18.80;99.90
47791;DHT22;33547;49.044;1.156;2023-07-20T08:25:10;18.90;99.90
47791;DHT22;33547;49.044;1.156;2023-07-20T08:27:36;19.10;99.90
47791;DHT22;33547;49.044;1.156;2023-07-20T08:30:03;19.30;99.90
47791;DHT22;33547;49.044;1.156;2023-07-20T08:32:30;18.90;99.90
47791;DHT22;33547;49.044;1.156;2023-07-20T08:34:55;19.00;99.90
47791;DHT22;33547;49.044;1.156;2023-07-20T08:37:21;19.10;99.90
47791;DHT22;33547;49.044;1.156;2023-07-20T08:39:47;19.30;99.90
47791;DHT22;33547;49.044;1.156;2023-07-20T08:42:14;19.50;99.90
47791;DHT22;33547;49.044;1.156;2023-07-20T08:44:42;20.00;99.90
47791;DHT22;33547;49.044;1.156;2023-07-20T08:47:08;20.90;99.90
47791;DHT22;33547;49.044;1.156;2023-07-20T08:49:35;21.50;99.90
47791;DHT22;33547;49.044;1.156;2023-07-20T08:52:02;21.60;99.90
47791;DHT22;33547;49.044;1.156;2023-07-20T08:54:30;21.40;99.90
47791;DHT22;33547;49.044;1.156;2023-07-20T08:56:58;22.00;99.90
47791;DHT22;33547;49.044;1.156;2023-07-20T08:59:27;23.30;99.90
47791;DHT22;33547;49.044;1.156;2023-07-20T09:01:58;24.50;99.90
47791;DHT22;33547;49.044;1.156;2023-07-20T09:04:24;25.20;99.90
47791;DHT22;33547;49.044;1.156;2023-07-20T09:06:50;25.50;99.90
47791;DHT22;33547;49.044;1.156;2023-07-20T09:09:16;25.40;99.90
47791;DHT22;33547;49.044;1.156;2023-07-20T09:11:42;25.60;99.70
47791;DHT22;33547;49.044;1.156;2023-07-20T09:14:09;25.80;99.10
47791;DHT22;33547;49.044;1.156;2023-07-20T09:16:53;26.00;98.60
47791;DHT22;33547;49.044;1.156;2023-07-20T09:19:20;26.30;98.50
47791;DHT22;33547;49.044;1.156;2023-07-20T09:21:50;26.90;97.90
47791;DHT22;33547;49.044;1.156;2023-07-20T09:24:17;27.80;96.50
47791;DHT22;33547;49.044;1.156;2023-07-20T09:26:44;28.20;96.30
47791;DHT22;33547;49.044;1.156;2023-07-20T09:29:10;28.90;95.10
47791;DHT22;33547;49.044;1.156;2023-07-20T09:31:37;28.10;94.40
47791;DHT22;33547;49.044;1.156;2023-07-20T09:34:03;28.40;94.60
47791;DHT22;33547;49.044;1.156;2023-07-20T09:36:32;28.00;95.00
47791;DHT22;33547;49.044;1.156;2023-07-20T09:38:59;28.20;95.00
47791;DHT22;33547;49.044;1.156;2023-07-20T09:41:25;28.90;94.50
47791;DHT22;33547;49.044;1.156;2023-07-20T09:43:52;29.00;94.10
47791;DHT22;33547;49.044;1.156;2023-07-20T09:46:18;28.70;93.90
47791;DHT22;33547;49.044;1.156;2023-07-20T09:48:54;29.60;92.50
47791;DHT22;33547;49.044;1.156;2023-07-20T09:51:24;30.70;91.80
47791;DHT22;33547;49.044;1.156;2023-07-20T09:53:52;30.80;91.70
47791;DHT22;33547;49.044;1.156;2023-07-20T09:56:21;31.50;90.90
47791;DHT22;33547;49.044;1.156;2023-07-20T09:58:48;32.00;90.00
47791;DHT22;33547;49.044;1.156;2023-07-20T10:01:17;32.10;86.60
47791;DHT22;33547;49.044;1.156;2023-07-20T10:03:45;31.70;87.30
47791;DHT22;33547;49.044;1.156;2023-07-20T10:06:15;32.80;85.80
47791;DHT22;33547;49.044;1.156;2023-07-20T10:08:47;30.90;85.00
47791;DHT22;33547;49.044;1.156;2023-07-20T10:11:15;31.00;85.40
47791;DHT22;33547;49.044;1.156;2023-07-20T10:13:41;30.80;85.10
47791;DHT22;33547;49.044;1.156;2023-07-20T10:16:22;31.40;80.80
47791;DHT22;33547;49.044;1.156;2023-07-20T10:21:45;31.60;79.50
47791;DHT22;33547;49.044;1.156;2023-07-20T10:24:13;31.30;81.50
47791;DHT22;33547;49.044;1.156;2023-07-20T10:26:39;30.50;82.00
47791;DHT22;33547;49.044;1.156;2023-07-20T10:29:05;30.70;79.60
47791;DHT22;33547;49.044;1.156;2023-07-20T10:31:32;30.90;80.00
47791;DHT22;33547;49.044;1.156;2023-07-20T10:33:58;30.80;79.70
47791;DHT22;33547;49.044;1.156;2023-07-20T10:36:27;30.20;79.60
47791;DHT22;33547;49.044;1.156;2023-07-20T10:38:57;30.20;79.30
47791;DHT22;33547;49.044;1.156;2023-07-20T10:41:29;30.90;79.10
47791;DHT22;33547;49.044;1.156;2023-07-20T10:44:01;31.30;75.70
47791;DHT22;33547;49.044;1.156;2023-07-20T10:49:06;31.10;73.80
47791;DHT22;33547;49.044;1.156;2023-07-20T10:51:46;30.90;74.10
47791;DHT22;33547;49.044;1.156;2023-07-20T10:56:42;28.90;73.70
47791;DHT22;33547;49.044;1.156;2023-07-20T10:59:37;29.00;75.90
47791;DHT22;33547;49.044;1.156;2023-07-20T11:02:07;29.20;78.40
47791;DHT22;33547;49.044;1.156;2023-07-20T11:04:44;29.50;78.40
47791;DHT22;33547;49.044;1.156;2023-07-20T11:07:23;29.60;75.30
47791;DHT22;33547;49.044;1.156;2023-07-20T11:10:13;30.50;76.10
47791;DHT22;33547;49.044;1.156;2023-07-20T11:12:40;30.60;75.00
47791;DHT22;33547;49.044;1.156;2023-07-20T11:15:06;31.20;73.60
47791;DHT22;33547;49.044;1.156;2023-07-20T11:17:32;30.90;73.20
47791;DHT22;33547;49.044;1.156;2023-07-20T11:20:00;31.20;71.80
47791;DHT22;33547;49.044;1.156;2023-07-20T11:22:30;32.00;73.90
47791;DHT22;33547;49.044;1.156;2023-07-20T11:24:57;32.00;72.00
47791;DHT22;33547;49.044;1.156;2023-07-20T11:27:23;32.40;70.40
47791;DHT22;33547;49.044;1.156;2023-07-20T11:29:49;31.20;71.60
47791;DHT22;33547;49.044;1.156;2023-07-20T11:32:22;30.90;71.30
47791;DHT22;33547;49.044;1.156;2023-07-20T11:34:48;29.90;71.90
47791;DHT22;33547;49.044;1.156;2023-07-20T11:37:15;29.90;72.40
47791;DHT22;33547;49.044;1.156;2023-07-20T11:39:41;30.00;71.90
47791;DHT22;33547;49.044;1.156;2023-07-20T11:42:07;30.10;71.90
47791;DHT22;33547;49.044;1.156;2023-07-20T11:44:33;29.30;71.70
47791;DHT22;33547;49.044;1.156;2023-07-20T11:47:07;29.90;72.40
47791;DHT22;33547;49.044;1.156;2023-07-20T11:49:37;30.50;71.60
47791;DHT22;33547;49.044;1.156;2023-07-20T11:52:09;29.90;71.50
47791;DHT22;33547;49.044;1.156;2023-07-20T11:54:38;30.90;71.40
47791;DHT22;33547;49.044;1.156;2023-07-20T11:57:04;31.20;69.60
47791;DHT22;33547;49.044;1.156;2023-07-20T11:59:31;30.60;70.90
47791;DHT22;33547;49.044;1.156;2023-07-20T12:01:58;30.70;69.30
47791;DHT22;33547;49.044;1.156;2023-07-20T12:04:24;30.70;71.10
47791;DHT22;33547;49.044;1.156;2023-07-20T12:06:49;30.80;70.80
47791;DHT22;33547;49.044;1.156;2023-07-20T12:09:17;30.20;70.80
47791;DHT22;33547;49.044;1.156;2023-07-20T12:11:44;29.70;70.30
47791;DHT22;33547;49.044;1.156;2023-07-20T12:14:11;29.40;71.10
47791;DHT22;33547;49.044;1.156;2023-07-20T12:16:37;29.20;71.60
47791;DHT22;33547;49.044;1.156;2023-07-20T12:19:11;29.00;72.50
47791;DHT22;33547;49.044;1.156;2023-07-20T12:21:38;29.10;70.80
47791;DHT22;33547;49.044;1.156;2023-07-20T12:24:06;29.00;72.00
47791;DHT22;33547;49.044;1.156;2023-07-20T12:26:33;28.40;71.80
47791;DHT22;33547;49.044;1.156;2023-07-20T12:28:59;28.70;72.40
47791;DHT22;33547;49.044;1.156;2023-07-20T12:31:26;28.90;71.90
47791;DHT22;33547;49.044;1.156;2023-07-20T12:33:53;28.70;70.60
47791;DHT22;33547;49.044;1.156;2023-07-20T12:36:20;28.60;71.40
47791;DHT22;33547;49.044;1.156;2023-07-20T12:38:46;28.00;72.80
47791;DHT22;33547;49.044;1.156;2023-07-20T12:41:12;27.80;71.90
47791;DHT22;33547;49.044;1.156;2023-07-20T12:43:42;28.00;72.80
47791;DHT22;33547;49.044;1.156;2023-07-20T12:46:09;28.30;71.20
47791;DHT22;33547;49.044;1.156;2023-07-20T12:48:36;28.40;69.20
47791;DHT22;33547;49.044;1.156;2023-07-20T12:51:06;28.50;69.90
47791;DHT22;33547;49.044;1.156;2023-07-20T12:53:32;28.40;71.00
47791;DHT22;33547;49.044;1.156;2023-07-20T12:55:58;28.60;70.50
47791;DHT22;33547;49.044;1.156;2023-07-20T12:58:24;28.40;70.20
47791;DHT22;33547;49.044;1.156;2023-07-20T13:00:50;28.40;70.30
47791;DHT22;33547;49.044;1.156;2023-07-20T13:03:15;28.40;71.00
47791;DHT22;33547;49.044;1.156;2023-07-20T13:05:44;28.10;69.70
47791;DHT22;33547;49.044;1.156;2023-07-20T13:08:09;27.90;70.10
47791;DHT22;33547;49.044;1.156;2023-07-20T13:10:36;27.90;71.10
47791;DHT22;33547;49.044;1.156;2023-07-20T13:13:02;28.10;70.20
47791;DHT22;33547;49.044;1.156;2023-07-20T13:15:41;28.00;69.80
47791;DHT22;33547;49.044;1.156;2023-07-20T13:18:07;28.30;72.10
47791;DHT22;33547;49.044;1.156;2023-07-20T13:20:32;28.30;69.60
47791;DHT22;33547;49.044;1.156;2023-07-20T13:22:58;28.30;68.70
47791;DHT22;33547;49.044;1.156;2023-07-20T13:25:25;28.60;68.50
47791;DHT22;33547;49.044;1.156;2023-07-20T13:27:50;29.00;68.10
47791;DHT22;33547;49.044;1.156;2023-07-20T13:30:16;28.70;67.70
47791;DHT22;33547;49.044;1.156;2023-07-20T13:32:45;28.50;68.00
47791;DHT22;33547;49.044;1.156;2023-07-20T13:35:14;28.60;68.90
47791;DHT22;33547;49.044;1.156;2023-07-20T13:37:41;28.50;68.70
47791;DHT22;33547;49.044;1.156;2023-07-20T13:40:07;28.30;70.00
47791;DHT22;33547;49.044;1.156;2023-07-20T13:42:39;28.30;69.80
47791;DHT22;33547;49.044;1.156;2023-07-20T13:45:06;28.50;69.10
47791;DHT22;33547;49.044;1.156;2023-07-20T13:47:31;28.70;67.70
47791;DHT22;33547;49.044;1.156;2023-07-20T13:49:57;28.80;68.50
47791;DHT22;33547;49.044;1.156;2023-07-20T13:52:23;28.70;67.30
47791;DHT22;33547;49.044;1.156;2023-07-20T13:54:48;28.60;67.00
47791;DHT22;33547;49.044;1.156;2023-07-20T13:57:15;28.60;68.20
47791;DHT22;33547;49.044;1.156;2023-07-20T13:59:40;28.50;68.70
47791;DHT22;33547;49.044;1.156;2023-07-20T14:02:07;28.50;67.20
47791;DHT22;33547;49.044;1.156;2023-07-20T14:04:32;28.40;67.90
47791;DHT22;33547;49.044;1.156;2023-07-20T14:06:58;28.50;67.70
47791;DHT22;33547;49.044;1.156;2023-07-20T14:09:24;28.30;67.40
47791;DHT22;33547;49.044;1.156;2023-07-20T14:11:49;28.30;67.30
47791;DHT22;33547;49.044;1.156;2023-07-20T14:14:15;28.00;67.10
47791;DHT22;33547;49.044;1.156;2023-07-20T14:16:41;28.10;66.80
47791;DHT22;33547;49.044;1.156;2023-07-20T14:19:07;28.00;66.50
47791;DHT22;33547;49.044;1.156;2023-07-20T14:21:32;28.10;68.50
47791;DHT22;33547;49.044;1.156;2023-07-20T14:23:58;27.80;67.00
47791;DHT22;33547;49.044;1.156;2023-07-20T14:26:24;27.90;67.50
47791;DHT22;33547;49.044;1.156;2023-07-20T14:28:50;27.80;67.40
47791;DHT22;33547;49.044;1.156;2023-07-20T14:31:16;27.80;66.90
47791;DHT22;33547;49.044;1.156;2023-07-20T14:33:41;27.80;66.70
47791;DHT22;33547;49.044;1.156;2023-07-20T14:36:07;28.00;67.00
47791;DHT22;33547;49.044;1.156;2023-07-20T14:38:34;28.10;67.90
47791;DHT22;33547;49.044;1.156;2023-07-20T14:41:00;28.10;67.30
47791;DHT22;33547;49.044;1.156;2023-07-20T14:43:26;28.00;67.90
47791;DHT22;33547;49.044;1.156;2023-07-20T14:45:51;27.90;66.50
47791;DHT22;33547;49.044;1.156;2023-07-20T14:48:17;27.80;66.90
47791;DHT22;33547;49.044;1.156;2023-07-20T14:50:43;27.70;67.40
47791;DHT22;33547;49.044;1.156;2023-07-20T14:53:12;27.80;68.10
47791;DHT22;33547;49.044;1.156;2023-07-20T14:55:37;28.00;67.50
47791;DHT22;33547;49.044;1.156;2023-07-20T14:58:03;27.80;68.50
47791;DHT22;33547;49.044;1.156;2023-07-20T15:00:28;27.70;67.20
47791;DHT22;33547;49.044;1.156;2023-07-20T15:02:55;27.70;67.80
47791;DHT22;33547;49.044;1.156;2023-07-20T15:05:22;27.50;67.90
47791;DHT22;33547;49.044;1.156;2023-07-20T15:07:49;27.50;68.50
47791;DHT22;33547;49.044;1.156;2023-07-20T15:10:15;27.40;68.00
47791;DHT22;33547;49.044;1.156;2023-07-20T15:12:41;27.50;70.60
47791;DHT22;33547;49.044;1.156;2023-07-20T15:15:09;27.40;69.30
47791;DHT22;33547;49.044;1.156;2023-07-20T15:17:35;27.40;69.10
47791;DHT22;33547;49.044;1.156;2023-07-20T15:20:02;27.20;69.90
47791;DHT22;33547;49.044;1.156;2023-07-20T15:22:35;27.00;69.90
47791;DHT22;33547;49.044;1.156;2023-07-20T15:25:02;27.00;70.00
47791;DHT22;33547;49.044;1.156;2023-07-20T15:27:28;27.00;68.90
47791;DHT22;33547;49.044;1.156;2023-07-20T15:29:54;26.90;69.60
47791;DHT22;33547;49.044;1.156;2023-07-20T15:32:19;26.90;70.10
47791;DHT22;33547;49.044;1.156;2023-07-20T15:34:47;26.90;69.40
47791;DHT22;33547;49.044;1.156;2023-07-20T15:37:12;27.00;69.60
47791;DHT22;33547;49.044;1.156;2023-07-20T15:39:39;26.90;70.20
47791;DHT22;33547;49.044;1.156;2023-07-20T15:42:05;27.00;69.80